• Join FlightAware (Why Join?)
  • Login
  • US Flag 
10:12PM EDT


 

Airport Tracker/Info


-or-


 

Live Flight TrackerFlight Track Log ✈ AFL150 ✈ 26-Jan-2014 ✈ UUEE / SVO - MUHA / HAV

Flight Track Log - Related Links

Times and Time Zones

All times are in EST time to prevent confusion due to time zone crossing. See the AFL150 flight status page for this flight to view local times or setup timezone preferences in your user account.

Time Position Orientation Groundspeed Altitude Reporting Facility
EST Latitude Longitude Course Direction KTS MPH feet Rate Location/Type
08:13AM 56.0739 37.2064 319° Northwest  Level FlightAware Approximate
08:14AM 56.1654 37.0605 318° Northwest  Level FlightAware Approximate
08:15AM 56.2567 36.9139 318° Northwest  Level FlightAware Approximate
08:16AM 56.3479 36.7666 318° Northwest  Level FlightAware Approximate
08:17AM 56.4388 36.6186 318° Northwest  Level FlightAware Approximate
08:18AM 56.5296 36.4699 318° Northwest  Level FlightAware Approximate
08:19AM 56.6202 36.3205 318° Northwest  Level FlightAware Approximate
08:20AM 56.7107 36.1703 318° Northwest  Level FlightAware Approximate
08:21AM 56.8009 36.0195 318° Northwest  Level FlightAware Approximate
08:22AM 56.8910 35.8679 317° Northwest  Level FlightAware Approximate
08:23AM 56.9809 35.7155 317° Northwest  Level FlightAware Approximate
08:24AM 57.0706 35.5625 317° Northwest  Level FlightAware Approximate
08:25AM 57.1601 35.4087 317° Northwest  Level FlightAware Approximate
08:26AM 57.2494 35.2541 317° Northwest  Level FlightAware Approximate
08:27AM 57.3385 35.0988 317° Northwest  Level FlightAware Approximate
08:28AM 57.4275 34.9428 317° Northwest  Level FlightAware Approximate
08:29AM 57.5162 34.7860 317° Northwest  Level FlightAware Approximate
08:30AM 57.6061 34.6222 314° West  Level FlightAware Approximate
08:31AM 57.6906 34.4566 314° West  Level FlightAware Approximate
08:32AM 57.7748 34.2902 314° West  Level FlightAware Approximate
08:33AM 57.8589 34.1231 313° West  Level FlightAware Approximate
08:34AM 57.9427 33.9551 313° West  Level FlightAware Approximate
08:35AM 58.0263 33.7864 313° West  Level FlightAware Approximate
08:36AM 58.1096 33.6169 313° West  Level FlightAware Approximate
08:37AM 58.1927 33.4466 313° West  Level FlightAware Approximate
08:38AM 58.2757 33.2755 313° West  Level FlightAware Approximate
08:39AM 58.3583 33.1036 313° West  Level FlightAware Approximate
08:39AM 56.3062 33.9145 313° West 448 516 34,000  Level FlightAware ADS-B (EVDA / DGP)
08:46AM 56.7660 30.5883 303° West 448 516 34,000  Level FlightAware ADS-B (EVDA / DGP)
08:47AM 56.8390 30.3951 305° West 451 519 34,000  Level FlightAware ADS-B (EVDA / DGP)
08:48AM 56.8827 30.2769 304° West 451 519 34,000  Level FlightAware ADS-B (EVDA / DGP)
08:49AM 56.9782 30.0156 304° West 453 521 34,000  Level FlightAware ADS-B (EVDA / DGP)
08:50AM 57.0473 29.8249 304° West 457 526 34,000  Level FlightAware ADS-B (EVDA / DGP)
08:51AM 57.1178 29.6290 304° West 459 528 34,000  Level FlightAware ADS-B (EVDA / DGP)
08:52AM 57.1873 29.4343 303° West 463 533 34,000  Level FlightAware ADS-B (EVDA / DGP)
08:53AM 57.2573 29.2365 303° West 466 536 34,000  Level FlightAware ADS-B (EVDA / DGP)
08:54AM 57.3289 29.0330 303° West 467 537 34,000  Level FlightAware ADS-B (EVDA / DGP)
08:55AM 57.3962 28.8399 303° West 467 537 34,000  Level FlightAware ADS-B (EVDA / DGP)
08:56AM 57.4676 28.6331 303° West 471 542 34,000  Level FlightAware ADS-B (EVDA / DGP)
08:57AM 57.5394 28.4236 303° West 474 545 34,000  Level FlightAware ADS-B (EVDA / DGP)
08:58AM 57.6081 28.2215 302° West 476 548 34,000  Level FlightAware ADS-B (EVDA / DGP)
08:59AM 57.6758 28.0207 302° West 478 550 34,000  Level FlightAware ADS-B (EVDA / DGP)
09:00AM 57.7502 27.7982 302° West 480 552 34,000  Level FlightAware ADS-B (EVDA / DGP)
09:01AM 57.8202 27.5871 302° West 480 552 34,000  Level FlightAware ADS-B (EVDA / DGP)
09:02AM 57.8717 27.3599 293° West 482 555 34,000  Level FlightAware ADS-B (EVDA / DGP)
09:03AM 57.9192 27.1228 291° West 484 557 34,000  Level FlightAware ADS-B (EVDA / DGP)
09:04AM 57.9646 26.8956 291° West 484 557 34,000  Level FlightAware ADS-B (EVDA / DGP)
09:05AM 58.0122 26.6551 291° West 482 555 34,000  Level FlightAware ADS-B (EVDA / DGP)
09:06AM 58.0587 26.4168 290° West 483 556 34,000  Level FlightAware ADS-B (EVDA / DGP)
09:07AM 58.1037 26.1833 290° West 484 557 34,000  Level FlightAware ADS-B (EVDA / DGP)
09:08AM 58.1502 25.9396 290° West 487 560 34,000  Level FlightAware ADS-B (EVDA / DGP)
09:09AM 58.1922 25.7164 290° West 485 558 34,000  Level FlightAware ADS-B (EVDA / DGP)
09:10AM 58.2393 25.4638 290° West 483 556 34,000  Level FlightAware ADS-B (EVDA / DGP)
09:11AM 58.2794 25.2456 289° West 484 557 34,000  Level FlightAware ADS-B (EVDA / DGP)
09:12AM 58.3227 25.0066 289° West 483 556 34,000  Level FlightAware ADS-B (EVDA / DGP)
09:13AM 58.3644 24.7741 289° West 482 555 34,000  Level FlightAware ADS-B (EVDA / DGP)
09:14AM 58.3899 24.6303 289° West 481 554 34,000  Level FlightAware ADS-B (EVDA / DGP)
09:15AM 58.4372 24.3520 288° West 481 554 34,000  Level FlightAware ADS-B (EVDA / DGP)
09:28AM 58.8762 21.1753 294° West 479 551 34,000  Level FlightAware ADS-B (ESKB)
09:28AM 58.8762 21.1753 294° West 481 554 34,000  Level FlightAware ADS-B (ESKB)
09:29AM 58.9438 20.7621 288° West 483 556 34,000  Level FlightAware ADS-B
09:30AM 58.9663 20.6263 288° West 484 557 34,000  Level FlightAware ADS-B
09:30AM 58.9866 20.5012 288° West 485 558 34,000  Level FlightAware ADS-B
09:31AM 59.0070 20.3762 288° West 484 557 34,000  Level FlightAware ADS-B
09:31AM 59.0222 20.2818 287° West 484 557 34,000  Level FlightAware ADS-B (ESKB)
09:32AM 59.0524 20.0921 287° West 484 557 34,000  Level FlightAware ADS-B (ESKB)
09:33AM 59.0795 19.9198 287° West 483 556 34,000  Level FlightAware ADS-B (ESKB)
09:33AM 59.0953 19.8191 287° West 481 554 34,000  Level FlightAware ADS-B
09:34AM 59.1181 19.6732 287° West 483 556 34,000  Level FlightAware ADS-B (ESKB)
09:34AM 59.1345 19.5671 287° West 480 552 34,000  Level FlightAware ADS-B
09:35AM 59.1570 19.4203 287° West 481 554 34,000  Level FlightAware ADS-B (ESKB)
09:35AM 59.1722 19.3207 287° West 478 550 34,000  Level FlightAware ADS-B
09:36AM 59.1924 19.1873 287° West 479 551 34,000  Level FlightAware ADS-B (ESKB)
09:36AM 59.2098 19.0719 286° West 477 549 34,000  Level FlightAware ADS-B
09:37AM 59.2327 18.9182 286° West 479 551 34,000  Level FlightAware ADS-B (ESKB)
09:37AM 59.2576 18.7485 286° West 480 552 34,000  Level FlightAware ADS-B (ESKB)
09:38AM 59.2807 18.5908 286° West 479 551 34,000  Level FlightAware ADS-B (ESKB)
09:39AM 59.3049 18.4221 286° West 479 551 34,000  Level FlightAware ADS-B (ESKB)
09:39AM 59.3291 18.2530 286° West 480 552 34,000  Level FlightAware ADS-B (ESKB)
09:40AM 59.3530 18.0841 286° West 480 552 34,000  Level FlightAware ADS-B (ESKB)
09:41AM 59.3773 17.9102 285° West 480 552 34,000  Level FlightAware ADS-B (ESKB)
09:41AM 59.3968 17.7711 285° West 480 552 34,000  Level FlightAware ADS-B (ESKB)
09:42AM 59.4154 17.6365 285° West 475 547 34,000  Level FlightAware ADS-B
09:42AM 59.4240 17.5732 285° West 475 547 34,000  Level FlightAware ADS-B
09:43AM 59.4430 17.4321 285° West 475 547 34,000  Level FlightAware ADS-B (ESKB)
09:43AM 59.4675 17.2495 285° West 475 547 34,000  Level FlightAware ADS-B (ESKB)
09:44AM 59.4828 17.1341 285° West 471 542 34,000  Level FlightAware ADS-B
09:44AM 59.5007 16.9985 285° West 473 544 34,000  Level FlightAware ADS-B (ESKB)
09:45AM 59.5226 16.8307 284° West 474 545 34,000  Level FlightAware ADS-B (ESKB)
09:46AM 59.5440 16.6646 284° West 473 544 34,000  Level FlightAware ADS-B (ESKB)
09:46AM 59.5639 16.5092 284° West 472 543 34,000  Level FlightAware ADS-B (ESKB)
09:47AM 59.5863 16.3321 284° West 473 544 34,000  Level FlightAware ADS-B (ESKB)
09:48AM 59.6170 16.0857 284° West 474 545 34,000  Level FlightAware ADS-B (ESKB)
09:49AM 59.6325 15.9587 284° West 474 545 34,000  Level FlightAware ADS-B (ESKB)
09:49AM 59.6647 15.6945 284° West 472 543 34,000  Level FlightAware ADS-B
09:50AM 59.6800 15.5663 283° West 471 542 34,000  Level FlightAware ADS-B
09:51AM 59.7017 15.3824 283° West 468 539 34,000  Level FlightAware ADS-B
09:51AM 59.7168 15.2537 283° West 466 536 34,000  Level FlightAware ADS-B
09:52AM 59.7383 15.0673 283° West 466 536 34,000  Level FlightAware ADS-B
09:53AM 59.7527 14.9410 283° West 466 536 34,000  Level FlightAware ADS-B
09:53AM 59.7741 14.7520 283° West 466 536 34,000  Level FlightAware ADS-B
09:54AM 59.7946 14.5670 283° West 466 536 34,000  Level FlightAware ADS-B
09:55AM 59.8089 14.4375 282° West 465 535 34,000  Level FlightAware ADS-B
09:55AM 59.8288 14.2549 282° West 464 534 34,000  Level FlightAware ADS-B
09:56AM 59.8423 14.1281 282° West 463 533 34,000  Level FlightAware ADS-B
09:57AM 59.8622 13.9420 282° West 463 533 34,000  Level FlightAware ADS-B
09:57AM 59.8754 13.8162 282° West 461 531 34,000  Level FlightAware ADS-B
09:58AM 59.8949 13.6285 282° West 460 529 34,000  Level FlightAware ADS-B
09:58AM 59.9076 13.5038 282° West 460 529 34,000  Level FlightAware ADS-B
09:59AM 59.9262 13.3207 281° West 459 528 34,000  Level FlightAware ADS-B
10:00AM 59.9389 13.1925 281° West 458 527 34,000  Level FlightAware ADS-B
10:00AM 59.9625 13.0106 285° West 458 527 34,000  Level FlightAware ADS-B
10:01AM 59.9806 12.8884 287° West 457 526 34,000  Level FlightAware ADS-B
10:02AM 60.0072 12.7089 287° West 456 525 34,000  Level FlightAware ADS-B
10:02AM 60.0251 12.5877 286° West 456 525 34,000  Level FlightAware ADS-B
10:03AM 60.0428 12.4664 286° West 456 525 34,000  Level FlightAware ADS-B
10:03AM 60.0604 12.3450 286° West 456 525 34,000  Level FlightAware ADS-B
10:04AM 60.0862 12.1657 286° West 454 522 34,000  Level FlightAware ADS-B
10:04AM 60.1040 12.0403 286° West 455 524 34,000  Level FlightAware ADS-B
10:05AM 60.1297 11.8589 286° West 456 525 34,000  Level FlightAware ADS-B
10:06AM 60.1554 11.6742 286° West 458 527 34,000  Level FlightAware ADS-B
10:06AM 60.1727 11.5490 286° West 459 528 34,000  Level FlightAware ADS-B
10:07AM 60.1900 11.4225 285° West 459 528 34,000  Level FlightAware ADS-B
10:08AM 60.2151 11.2382 285° West 461 531 34,000  Level FlightAware ADS-B
10:08AM 60.2317 11.1142 285° West 463 533 34,000  Level FlightAware ADS-B
10:09AM 60.2481 10.9907 285° West 463 533 34,000  Level FlightAware ADS-B
10:09AM 60.2729 10.8035 285° West 462 532 34,000  Level FlightAware ADS-B
10:10AM 60.2892 10.6784 285° West 463 533 34,000  Level FlightAware ADS-B
10:10AM 60.3057 10.5508 285° West 462 532 34,000  Level FlightAware ADS-B
10:11AM 60.3284 10.3743 285° West 463 533 34,000  Level FlightAware ADS-B
10:12AM 60.3455 10.2384 284° West 462 532 34,000  Level FlightAware ADS-B
10:12AM 60.3687 10.0533 284° West 463 533 34,000  Level FlightAware ADS-B
10:13AM 60.3997 9.8027 284° West 457 526 34,000  Level FlightAware ADS-B
10:14AM 60.4151 9.6774 284° West 456 525 34,000  Level FlightAware ADS-B
10:14AM 60.4365 9.4996 284° West 456 525 34,000  Level FlightAware ADS-B
10:15AM 60.4524 9.3659 284° West 455 524 34,000  Level FlightAware ADS-B
10:16AM 60.4742 9.1821 284° West 454 522 34,000  Level FlightAware ADS-B
10:16AM 60.4890 9.0550 283° West 454 522 34,000  Level FlightAware ADS-B
10:17AM 60.5099 8.8747 283° West 450 518 34,000  Level FlightAware ADS-B
10:18AM 60.5242 8.7491 283° West 452 520 34,000  Level FlightAware ADS-B
10:18AM 60.5383 8.6257 283° West 451 519 34,000  Level FlightAware ADS-B
10:19AM 60.5529 8.4955 283° West 448 516 34,000  Level FlightAware ADS-B
10:19AM 60.5727 8.3171 283° West 446 513 34,000  Level FlightAware ADS-B
10:23AM 60.6546 7.5512 282° West 427 491 34,000  Level FlightAware ADS-B (EGBP)
10:23AM 60.6705 7.3984 282° West 424 488 34,100 660 Climbing FlightAware ADS-B (EGBP)
10:24AM 60.6860 7.2464 282° West 418 481 34,900 1,020 Climbing FlightAware ADS-B (EGBP)
10:25AM 60.7020 7.0875 282° West 418 481 35,500 780 Climbing FlightAware ADS-B (EGBP)
10:25AM 60.7169 6.9375 282° West 420 483 36,000 360 Climbing FlightAware ADS-B (EGBP)
10:26AM 60.7315 6.7888 281° West 429 494 36,000  Level FlightAware ADS-B (EGBP)
10:27AM 60.7470 6.6287 281° West 425 489 36,000  Level FlightAware ADS-B (EGBP)
10:27AM 60.7625 6.4675 281° West 425 489 36,000  Level FlightAware ADS-B (EGBP)
10:28AM 60.7781 6.3022 281° West 424 488 36,000  Level FlightAware ADS-B (EGBP)
10:29AM 60.7927 6.1461 281° West 425 489 36,000  Level FlightAware ADS-B (EGBP)
10:29AM 60.8056 6.0064 281° West 426 490 36,000  Level FlightAware ADS-B (EGBP)
10:30AM 60.8214 5.8308 281° West 426 490 36,000  Level FlightAware ADS-B (EGBP)
10:31AM 60.8357 5.6710 280° West 422 486 36,000  Level FlightAware ADS-B (EGBP)
10:31AM 60.8494 5.5168 280° West 418 481 36,000  Level FlightAware ADS-B (EGBP)
10:34AM 60.8951 4.9673 280° West  Level Estimated
10:35AM 60.9149 4.7189 279° West  Level Estimated
10:36AM 60.9344 4.4701 279° West  Level Estimated
10:37AM 60.9533 4.2211 279° West  Level Estimated
10:38AM 60.9718 3.9718 279° West  Level Estimated
10:39AM 60.9899 3.7222 279° West  Level Estimated
10:40AM 61.0074 3.4723 278° West  Level Estimated
10:41AM 61.0246 3.2222 278° West  Level Estimated
10:42AM 61.0412 2.9718 278° West  Level Estimated
10:43AM 61.0574 2.7211 278° West  Level Estimated
10:44AM 61.0731 2.4701 277° West  Level Estimated
10:45AM 61.0884 2.2190 277° West  Level Estimated
10:46AM 61.1032 1.9676 277° West  Level Estimated
10:47AM 61.1175 1.7159 277° West  Level Estimated
10:48AM 61.1314 1.4640 277° West  Level Estimated
10:49AM 61.1448 1.2119 276° West  Level Estimated
10:50AM 61.1577 0.9596 276° West  Level Estimated
10:51AM 61.1702 0.7071 276° West  Level Estimated
10:52AM 61.1821 0.4544 276° West  Level Estimated
10:53AM 61.1936 0.2016 276° West  Level Estimated
10:54AM 61.2047 -0.0515 275° West  Level Estimated
10:55AM 61.2152 -0.3048 275° West  Level Estimated
10:56AM 61.2253 -0.5582 275° West  Level Estimated
10:57AM 61.2350 -0.8117 275° West  Level Estimated
10:58AM 61.2441 -1.0655 274° West  Level Estimated
10:59AM 61.2528 -1.3193 274° West  Level Estimated
11:00AM 61.2610 -1.5733 274° West  Level Estimated
11:01AM 61.2687 -1.8275 274° West  Level Estimated
11:02AM 61.2760 -2.0817 274° West  Level Estimated
11:03AM 61.2827 -2.3361 273° West  Level Estimated
11:04AM 61.2890 -2.5905 273° West  Level Estimated
11:05AM 61.2948 -2.8451 273° West  Level Estimated
11:06AM 61.3002 -3.0998 273° West  Level Estimated
11:07AM 61.3050 -3.3545 272° West  Level Estimated
11:08AM 61.3094 -3.6093 272° West  Level Estimated
11:09AM 61.3134 -3.8642 272° West  Level Estimated
11:10AM 61.3168 -4.1191 272° West  Level Estimated
11:11AM 61.3197 -4.3741 271° West  Level Estimated
11:12AM 61.3222 -4.6292 271° West  Level Estimated
11:13AM 61.3242 -4.8843 271° West  Level Estimated
11:14AM 61.3257 -5.1393 271° West  Level Estimated
11:15AM 61.3268 -5.3945 271° West  Level Estimated
11:16AM 61.3274 -5.6496 270° West  Level Estimated
11:17AM 61.3274 -5.9048 270° West  Level Estimated
11:18AM 61.3270 -6.1599 270° West  Level Estimated
11:19AM 61.3262 -6.4150 270° West  Level Estimated
11:20AM 61.3248 -6.6701 269° West  Level Estimated
11:21AM 61.3230 -6.9252 269° West  Level Estimated
11:22AM 61.3207 -7.1803 269° West  Level Estimated
11:23AM 61.3179 -7.4353 269° West  Level Estimated
11:24AM 61.3147 -7.6902 269° West  Level Estimated
11:25AM 61.3109 -7.9452 268° West  Level Estimated
11:26AM 61.3067 -8.2000 268° West  Level Estimated
11:27AM 61.3020 -8.4548 268° West  Level Estimated
11:28AM 61.2969 -8.7095 268° West  Level Estimated
11:29AM 61.2912 -8.9641 267° West  Level Estimated
11:30AM 61.2851 -9.2186 267° West  Level Estimated
11:31AM 61.2785 -9.4730 267° West  Level Estimated
11:32AM 61.2714 -9.7273 267° West  Level Estimated
11:33AM 61.2639 -9.9814 267° West  Level Estimated
11:34AM 61.2559 -10.2355 266° West  Level Estimated
11:35AM 61.2474 -10.4894 266° West  Level Estimated
11:36AM 61.2384 -10.7432 266° West  Level Estimated
11:37AM 61.2289 -10.9968 266° West  Level Estimated
11:38AM 61.2190 -11.2502 265° West  Level Estimated
11:39AM 61.2086 -11.5035 265° West  Level Estimated
11:40AM 61.1978 -11.7567 265° West  Level Estimated
11:41AM 61.1864 -12.0096 265° West  Level Estimated
11:42AM 61.1746 -12.2624 265° West  Level Estimated
11:43AM 61.1623 -12.5150 264° West  Level Estimated
11:44AM 61.1496 -12.7674 264° West  Level Estimated
11:45AM 61.1364 -13.0195 264° West  Level Estimated
11:46AM 61.1227 -13.2715 264° West  Level Estimated
11:47AM 61.1085 -13.5232 263° West  Level Estimated
11:48AM 61.0939 -13.7747 263° West  Level Estimated
11:49AM 61.0788 -14.0260 263° West  Level Estimated
11:50AM 61.0632 -14.2770 263° West  Level Estimated
11:51AM 61.0472 -14.5278 263° West  Level Estimated
11:52AM 61.0307 -14.7783 262° West  Level Estimated
11:53AM 61.0138 -15.0286 262° West  Level Estimated
11:54AM 60.9964 -15.2785 262° West  Level Estimated
11:55AM 60.9785 -15.5282 262° West  Level Estimated
11:56AM 60.9602 -15.7776 261° West  Level Estimated
11:57AM 60.9414 -16.0268 261° West  Level Estimated
11:58AM 60.9221 -16.2756 261° West  Level Estimated
11:59AM 60.9024 -16.5241 261° West  Level Estimated
12:00PM 60.8823 -16.7724 261° West  Level Estimated
12:01PM 60.8616 -17.0203 260° West  Level Estimated
12:02PM 60.8405 -17.2678 260° West  Level Estimated
12:03PM 60.8190 -17.5151 260° West  Level Estimated
12:04PM 60.7970 -17.7620 260° West  Level Estimated
12:05PM 60.7746 -18.0086 260° West  Level Estimated
12:06PM 60.7517 -18.2548 259° West  Level Estimated
12:07PM 60.7283 -18.5007 259° West  Level Estimated
12:08PM 60.7046 -18.7462 259° West  Level Estimated
12:09PM 60.6803 -18.9913 259° West  Level Estimated
12:10PM 60.6556 -19.2361 258° West  Level Estimated
12:11PM 60.6305 -19.4805 258° West  Level Estimated
12:12PM 60.6049 -19.7245 258° West  Level Estimated
12:13PM 60.5789 -19.9681 258° West  Level Estimated
12:14PM 60.5524 -20.2113 258° West  Level Estimated
12:15PM 60.5255 -20.4541 257° West  Level Estimated
12:16PM 60.4981 -20.6965 257° West  Level Estimated
12:17PM 60.4704 -20.9385 257° West  Level Estimated
12:18PM 60.4421 -21.1801 257° West  Level Estimated
12:19PM 60.4135 -21.4213 257° West  Level Estimated
12:20PM 60.3844 -21.6620 256° West  Level Estimated
12:21PM 60.3549 -21.9023 256° West  Level Estimated
12:22PM 60.3249 -22.1422 256° West  Level Estimated
12:23PM 60.2945 -22.3816 256° West  Level Estimated
12:24PM 60.2637 -22.6205 256° West  Level Estimated
12:25PM 60.2324 -22.8591 255° West  Level Estimated
12:26PM 60.2007 -23.0971 255° West  Level Estimated
12:27PM 60.1687 -23.3347 255° West  Level Estimated
12:28PM 60.1361 -23.5718 255° West  Level Estimated
12:29PM 60.1032 -23.8085 254° West  Level Estimated
12:30PM 60.0698 -24.0447 254° West  Level Estimated
12:31PM 60.0360 -24.2804 254° West  Level Estimated
12:32PM 60.0018 -24.5156 254° West  Level Estimated
12:33PM 59.9672 -24.7503 254° West  Level Estimated
12:34PM 59.9321 -24.9846 253° West  Level Estimated
12:35PM 59.8967 -25.2183 253° West  Level Estimated
12:36PM 59.8608 -25.4515 253° West  Level Estimated
12:37PM 59.8245 -25.6843 253° West  Level Estimated
12:38PM 59.7878 -25.9165 253° West  Level Estimated
12:39PM 59.7507 -26.1482 252° West  Level Estimated
12:40PM 59.7132 -26.3794 252° West  Level Estimated
12:41PM 59.6753 -26.6101 252° West  Level Estimated
12:42PM 59.6370 -26.8402 252° West  Level Estimated
12:43PM 59.5983 -27.0698 252° West  Level Estimated
12:44PM 59.5592 -27.2989 251° West  Level Estimated
12:45PM 59.5196 -27.5275 251° West  Level Estimated
12:46PM 59.4797 -27.7555 251° West  Level Estimated
12:47PM 59.4394 -27.9830 251° West  Level Estimated
12:48PM 59.3987 -28.2099 251° West  Level Estimated
12:49PM 59.3576 -28.4363 250° West  Level Estimated
12:50PM 59.3161 -28.6621 250° West  Level Estimated
12:51PM 59.2742 -28.8874 250° West  Level Estimated
12:52PM 59.2319 -29.1121 250° West  Level Estimated
12:53PM 59.1893 -29.3363 250° West  Level Estimated
12:54PM 59.1463 -29.5599 250° West  Level Estimated
12:55PM 59.1028 -29.7829 249° West  Level Estimated
12:56PM 59.0590 -30.0054 249° West  Level Estimated
12:57PM 59.0148 -30.2273 249° West  Level Estimated
12:58PM 58.9703 -30.4486 249° West  Level Estimated
12:59PM 58.9253 -30.6694 249° West  Level Estimated
01:00PM 58.8800 -30.8896 248° West  Level Estimated
01:01PM 58.8343 -31.1092 248° West  Level Estimated
01:02PM 58.7883 -31.3282 248° West  Level Estimated
01:03PM 58.7418 -31.5466 248° West  Level Estimated
01:04PM 58.6950 -31.7645 248° West  Level Estimated
01:05PM 58.6479 -31.9818 247° West  Level Estimated
01:06PM 58.6003 -32.1984 247° West  Level Estimated
01:07PM 58.5524 -32.4145 247° West  Level Estimated
01:08PM 58.5042 -32.6300 247° West  Level Estimated
01:09PM 58.4556 -32.8449 247° West  Level Estimated
01:10PM 58.4066 -33.0592 247° West  Level Estimated
01:11PM 58.3572 -33.2729 246° West  Level Estimated
01:12PM 58.3075 -33.4861 246° West  Level Estimated
01:13PM 58.2575 -33.6986 246° West  Level Estimated
01:14PM 58.2071 -33.9105 246° West  Level Estimated
01:15PM 58.1564 -34.1218 246° West  Level Estimated
01:16PM 58.1053 -34.3325 245° Southwest  Level Estimated
01:17PM 65.0000 -40.0000 261° West 429 494 36,000  Level ETMS Enhanced Traffic Management System
02:02PM 64.0000 -50.0000 251° West 396 456 36,000  Level ETMS Enhanced Traffic Management System
02:02PM 64.0000 -50.0000 251° West 396 456 36,000  Level ETMS Enhanced Traffic Management System
02:17PM 63.1167 -55.1333 245° Southwest 360 414 36,000  Level Gander Center
02:18PM 63.0209 -55.5045 246° West 396 456 36,000  Level FlightAware Transoceanic
02:18PM 63.0500 -55.3667 238° Southwest 370 426 36,000  Level Gander Center
02:19PM 62.9756 -55.7256 246° West 396 456 36,000  Level FlightAware Transoceanic
02:19PM 63.0167 -55.5500 248° West 370 426 36,000  Level Gander Center
02:20PM 62.9300 -55.9459 245° Southwest 396 456 36,000  Level FlightAware Transoceanic
02:20PM 62.9667 -55.7333 239° Southwest 360 414 36,000  Level Gander Center
02:21PM 62.8840 -56.1655 245° Southwest 396 456 36,000  Level FlightAware Transoceanic
02:21PM 62.9167 -55.9333 241° Southwest 360 414 36,000  Level Gander Center
02:22PM 62.8377 -56.3845 245° Southwest 396 456 36,000  Level FlightAware Transoceanic
02:22PM 62.8833 -56.1167 248° West 360 414 36,000  Level Gander Center
02:23PM 62.8167 -56.3500 238° Southwest 370 426 36,000  Level Gander Center
02:24PM 62.7833 -56.5333 248° West 380 437 36,000  Level Gander Center
02:25PM 62.7333 -56.7167 239° Southwest 370 426 36,000  Level Gander Center
02:26PM 62.6667 -56.9167 234° Southwest 370 426 36,000  Level Gander Center
02:27PM 62.6333 -57.1000 248° West 360 414 36,000  Level Gander Center
02:28PM 62.5667 -57.2833 232° Southwest 360 414 36,000  Level Gander Center
02:29PM 62.5167 -57.4667 239° Southwest 350 403 36,000  Level Gander Center
02:30PM 62.4833 -57.6167 244° Southwest 350 403 36,000  Level Gander Center
02:31PM 62.4333 -57.8000 240° Southwest 340 391 36,000  Level Gander Center
02:32PM 62.3833 -58.0000 242° Southwest 340 391 36,000  Level Gander Center
02:37PM 62.1500 -58.7833 238° Southwest 330 380 36,000  Level Montreal Center
02:38PM 62.1000 -59.0167 245° Southwest 330 380 36,000  Level Gander Center
02:39PM 62.0667 -59.1667 245° Southwest 330 380 36,000  Level Gander Center
02:40PM 62.0167 -59.3333 237° Southwest 330 380 36,000 180 Level Gander Center
02:41PM 61.9649 -59.4629 239° Southwest  Level FlightAware Approximate
02:41PM 61.9667 -59.5167 240° Southwest 330 380 36,400  Level Gander Center
02:42PM 61.9167 -59.6257 238° Southwest  Level FlightAware Approximate
02:42PM 61.9167 -59.6667 235° Southwest 330 380 37,000  Level Gander Center
02:43PM 61.8667 -59.8333 238° Southwest 330 380 37,000  Level Gander Center
02:44PM 61.8167 -60.0167 240° Southwest 330 380 37,000  Level Gander Center
02:45PM 61.7500 -60.1667 227° Southwest 340 391 37,000  Level Gander Center
02:46PM 61.7167 -60.2500 230° Southwest 330 380 37,000 -180 Level Montreal Center
02:47PM 61.6333 -60.4667 231° Southwest 400 460 36,700 -360 Descending Montreal Center
02:48PM 61.6167 -60.5833 253° West 300 345 36,300 -240 Descending Montreal Center
02:50PM 61.5000 -60.9333 235° Southwest 340 391 36,000 -120 Descending Montreal Center
02:51PM 61.4667 -61.0667 242° Southwest 330 380 36,000  Level Montreal Center
02:52PM 61.4167 -61.2333 238° Southwest 330 380 36,000  Level Montreal Center
02:53PM 61.3667 -61.4000 238° Southwest 330 380 36,000  Level Montreal Center
02:54PM 61.3000 -61.5500 227° Southwest 330 380 36,000  Level Montreal Center
02:55PM 61.2667 -61.7167 247° West 330 380 36,000  Level Montreal Center
02:56PM 61.2000 -61.8833 230° Southwest 330 380 36,000  Level Montreal Center
02:57PM 61.1500 -62.0167 232° Southwest 330 380 36,000  Level Montreal Center
02:58PM 61.1000 -62.2167 243° Southwest 340 391 36,000  Level Montreal Center
02:59PM 61.0500 -62.3500 232° Southwest 340 391 36,000  Level Montreal Center
03:01PM 60.9500 -62.6667 237° Southwest 340 391 36,000  Level Montreal Center
03:02PM 60.9000 -62.8667 243° Southwest 350 403 36,000  Level Montreal Center
03:03PM 60.8167 -63.0333 224° Southwest 370 426 36,000  Level Montreal Center
03:04PM 60.7667 -63.2167 241° Southwest 350 403 36,000  Level Montreal Center
03:05PM 60.7167 -63.3833 239° Southwest 350 403 36,000  Level Montreal Center
03:12PM 60.3167 -64.5667 233° Southwest 370 426 36,000  Level Gander Center
03:13PM 60.2333 -64.7000 218° Southwest 370 426 36,000  Level Montreal Center
03:14PM 60.2481 -64.6823 234° Southwest  Level FlightAware Approximate
03:14PM 60.1833 -64.8833 241° Southwest 370 426 36,000  Level Montreal Center
03:15PM 60.1941 -64.8276 233° Southwest  Level FlightAware Approximate
03:15PM 60.1167 -65.0500 231° Southwest 370 426 36,000  Level Montreal Center
03:16PM 60.1399 -64.9724 233° Southwest  Level FlightAware Approximate
03:16PM 60.0333 -65.1667 215° Southwest 370 426 36,000  Level Montreal Center
03:17PM 60.0856 -65.1167 233° Southwest  Level FlightAware Approximate
03:17PM 59.9667 -65.3333 231° Southwest 370 426 36,000  Level Montreal Center
03:18PM 59.9000 -65.4500 221° Southwest 370 426 36,000  Level Montreal Center
03:19PM 59.8167 -65.5833 219° Southwest 370 426 36,000  Level Montreal Center
03:20PM 59.7500 -65.7333 229° Southwest 370 426 36,000  Level Montreal Center
03:21PM 59.6500 -65.8667 214° Southwest 370 426 36,000  Level Montreal Center
03:22PM 59.5833 -66.0167 229° Southwest 370 426 36,000  Level Montreal Center
03:23PM 59.5000 -66.1333 215° Southwest 380 437 36,000  Level Montreal Center
03:24PM 59.4333 -66.2667 226° Southwest 380 437 36,000  Level Montreal Center
03:25PM 59.3333 -66.4167 217° Southwest 380 437 36,000  Level Montreal Center
03:26PM 59.2667 -66.5333 222° Southwest 380 437 36,000  Level Montreal Center
03:27PM 59.1833 -66.6833 223° Southwest 380 437 36,000  Level Montreal Center
03:28PM 59.1000 -66.8167 219° Southwest 390 449 36,000  Level Montreal Center
03:29PM 59.0167 -66.9333 216° Southwest 390 449 36,000  Level Montreal Center
03:30PM 58.9333 -67.0833 223° Southwest 390 449 36,000  Level Montreal Center
03:31PM 58.8500 -67.2000 216° Southwest 400 460 36,000  Level Montreal Center
03:32PM 58.7667 -67.3500 223° Southwest 400 460 36,000  Level Montreal Center
03:33PM 58.6667 -67.5167 221° Southwest 400 460 36,000  Level Montreal Center
03:34PM 58.6000 -67.6167 218° Southwest 400 460 36,000  Level Montreal Center
03:35PM 58.5000 -67.7833 221° Southwest 400 460 36,000  Level Montreal Center
03:36PM 58.4167 -67.9333 223° Southwest 410 472 36,000  Level Montreal Center
03:37PM 58.3167 -68.0500 212° Southwest 410 472 36,000  Level Montreal Center
03:38PM 58.2333 -68.1833 220° Southwest 420 483 36,000  Level Montreal Center
03:39PM 58.1833 -68.3000 231° Southwest 390 449 36,000  Level Montreal Center
03:40PM 58.0833 -68.4167 212° Southwest 460 529 36,000  Level Montreal Center
03:41PM 57.9667 -68.5667 214° Southwest 430 495 36,000  Level Montreal Center
03:42PM 57.8833 -68.7167 224° Southwest 430 495 36,000  Level Montreal Center
03:43PM 57.7833 -68.8167 208° Southwest 430 495 36,000  Level Montreal Center
03:49PM 57.2000 -69.6167 215° Southwest 430 495 36,000  Level Montreal Center
03:50PM 57.1000 -69.7333 212° Southwest 430 495 36,000  Level Montreal Center
03:51PM 57.0167 -69.8667 221° Southwest 430 495 36,000  Level Montreal Center
03:52PM 57.1413 -69.6807 216° Southwest  Level FlightAware Approximate
03:52PM 56.9000 -70.0167 215° Southwest 430 495 36,000  Level Montreal Center
03:53PM 57.0677 -69.7768 215° Southwest  Level FlightAware Approximate
03:53PM 56.8000 -70.1167 209° Southwest 440 506 36,000  Level Montreal Center
03:54PM 56.9941 -69.8726 215° Southwest  Level FlightAware Approximate
03:54PM 56.7167 -70.2500 221° Southwest 440 506 36,000  Level Montreal Center
03:55PM 56.6000 -70.4000 215° Southwest 440 506 36,000  Level Montreal Center
03:56PM 56.5000 -70.5000 209° Southwest 440 506 36,000  Level Montreal Center
03:57PM 56.4000 -70.6333 216° Southwest 440 506 36,000  Level Montreal Center
03:58PM 56.3000 -70.7667 217° Southwest 440 506 36,000  Level Montreal Center
03:59PM 56.2000 -70.8833 213° Southwest 440 506 36,000  Level Montreal Center
04:00PM 56.0833 -71.0167 213° Southwest 440 506 36,000  Level Montreal Center
04:01PM 55.9833 -71.1167 209° Southwest 430 495 36,000  Level Montreal Center
04:02PM 55.9000 -71.2500 222° Southwest 440 506 36,000  Level Montreal Center
04:03PM 55.8000 -71.3500 209° Southwest 440 506 36,000  Level Montreal Center
04:04PM 55.6833 -71.4833 213° Southwest 440 506 36,000  Level Montreal Center
04:05PM 55.5833 -71.6167 217° Southwest 440 506 36,000  Level Montreal Center
04:06PM 55.4833 -71.7167 210° Southwest 440 506 36,000  Level Montreal Center
04:07PM 55.3667 -71.8500 213° Southwest 440 506 36,000  Level Montreal Center
04:08PM 55.2833 -71.9667 219° Southwest 440 506 36,000  Level Montreal Center
04:09PM 55.1833 -72.0667 210° Southwest 440 506 36,000  Level Montreal Center
04:10PM 55.0667 -72.2000 213° Southwest 440 506 36,000  Level Montreal Center
04:11PM 54.9667 -72.3167 214° Southwest 440 506 36,000  Level Montreal Center
04:12PM 54.8500 -72.4500 213° Southwest 440 506 36,000  Level Montreal Center
04:13PM 54.7500 -72.5500 210° Southwest 440 506 36,000  Level Montreal Center
04:14PM 54.6667 -72.6667 219° Southwest 440 506 36,000  Level Montreal Center
04:15PM 54.5500 -72.8000 214° Southwest 440 506 36,000  Level Montreal Center
04:16PM 54.4500 -72.9000 210° Southwest 440 506 36,000  Level Montreal Center
04:17PM 54.3500 -73.0167 214° Southwest 440 506 36,000  Level Montreal Center
04:18PM 54.2333 -73.1333 210° Southwest 440 506 36,000  Level Montreal Center
04:19PM 54.1333 -73.2333 210° Southwest 440 506 36,000  Level Montreal Center
04:20PM 54.0333 -73.3500 214° Southwest 440 506 36,000  Level Montreal Center
04:21PM 53.9167 -73.4833 214° Southwest 440 506 36,000  Level Montreal Center
04:22PM 53.8167 -73.5667 206° Southwest 440 506 36,000  Level Montreal Center
04:23PM 53.7167 -73.6833 215° Southwest 440 506 36,000  Level Montreal Center
04:24PM 53.5833 -73.7833 204° Southwest 450 518 36,000  Level Montreal Center
04:25PM 53.4833 -73.9000 215° Southwest 440 506 36,000  Level Montreal Center
04:26PM 53.3667 -73.9833 203° Southwest 450 518 36,000  Level Montreal Center
04:27PM 53.2500 -74.0833 207° Southwest 440 506 36,000  Level Montreal Center
04:28PM 53.1500 -74.1667 207° Southwest 440 506 36,000  Level Montreal Center
04:29PM 53.0333 -74.2500 203° Southwest 440 506 36,000  Level Montreal Center
04:30PM 52.9500 -74.3500 216° Southwest 440 506 36,000  Level Montreal Center
04:31PM 52.8333 -74.4333 203° Southwest 440 506 36,000  Level Montreal Center
04:32PM 52.7167 -74.5167 203° Southwest 430 495 36,000  Level Montreal Center
04:33PM 52.6167 -74.6000 207° Southwest 430 495 36,000  Level Montreal Center
04:34PM 52.4833 -74.7000 205° Southwest 440 506 36,000  Level Montreal Center
04:35PM 52.3833 -74.7833 207° Southwest 440 506 36,000  Level Montreal Center
04:36PM 52.2667 -74.8667 204° Southwest 410 472 36,000  Level Montreal Center
04:37PM 52.1667 -74.9500 207° Southwest 440 506 36,000  Level Montreal Center
04:38PM 52.0500 -75.0667 212° Southwest 430 495 36,000  Level Montreal Center
04:39PM 51.9333 -75.1500 204° Southwest 450 518 36,000  Level Montreal Center
04:40PM 51.8333 -75.2333 207° Southwest 440 506 36,000  Level Montreal Center
04:41PM 51.7167 -75.3167 204° Southwest 430 495 36,000  Level Montreal Center
04:42PM 51.6000 -75.4000 204° Southwest 440 506 36,000  Level Montreal Center
04:43PM 51.4833 -75.4833 204° Southwest 430 495 36,000  Level Montreal Center
04:44PM 51.3833 -75.5667 207° Southwest 430 495 36,000  Level Montreal Center
04:45PM 51.2833 -75.6500 208° Southwest 430 495 36,000  Level Montreal Center
04:46PM 51.1667 -75.7167 200° South 430 495 36,000  Level Montreal Center
04:47PM 51.0667 -75.8000 208° Southwest 430 495 36,000  Level Montreal Center
04:48PM 50.9500 -75.8833 204° Southwest 430 495 36,000  Level Montreal Center
04:49PM 50.8500 -75.9667 208° Southwest 440 506 36,000  Level Montreal Center
04:50PM 50.7333 -76.0500 204° Southwest 430 495 36,000  Level Montreal Center
04:51PM 50.6167 -76.1167 200° South 440 506 36,000  Level Montreal Center
04:52PM 50.5167 -76.2000 208° Southwest 430 495 36,000  Level Montreal Center
04:53PM 50.4000 -76.2833 204° Southwest 430 495 36,000  Level Montreal Center
04:54PM 50.3000 -76.3667 208° Southwest 430 495 36,000  Level Montreal Center
04:55PM 50.1833 -76.4333 200° South 430 495 36,000  Level Montreal Center
04:56PM 50.0667 -76.5167 205° Southwest 430 495 36,000  Level Montreal Center
04:57PM 49.9500 -76.6000 205° Southwest 430 495 36,000  Level Montreal Center
04:58PM 49.8500 -76.6667 203° Southwest 430 495 36,000  Level Montreal Center
04:59PM 49.7333 -76.7667 209° Southwest 430 495 36,000  Level Montreal Center
05:00PM 49.6333 -76.8167 198° South 440 506 36,000  Level Montreal Center
05:01PM 49.5167 -76.9167 209° Southwest 410 472 36,000  Level Montreal Center
05:02PM 49.4167 -76.9667 198° South 440 506 36,000  Level Montreal Center
05:03PM 49.3000 -77.0500 205° Southwest 440 506 36,000  Level Montreal Center
05:04PM 49.2000 -77.1500 213° Southwest 420 483 36,000  Level Montreal Center
05:05PM 49.1000 -77.2000 198° South 430 495 36,000  Level Montreal Center
05:06PM 48.9833 -77.2667 201° Southwest 420 483 36,000  Level Montreal Center
05:07PM 48.8667 -77.3500 205° Southwest 420 483 36,000  Level Montreal Center
05:08PM 48.7500 -77.4500 209° Southwest 420 483 36,000  Level Montreal Center
05:09PM 48.6500 -77.5000 198° South 420 483 36,000  Level Montreal Center
05:10PM 48.5500 -77.5667 204° Southwest 420 483 36,000  Level Montreal Center
05:11PM 48.4500 -77.6333 204° Southwest 420 483 36,000  Level Montreal Center
05:12PM 48.3333 -77.7167 205° Southwest 420 483 36,000  Level Montreal Center
05:13PM 48.2333 -77.7833 204° Southwest 420 483 36,000  Level Montreal Center
05:14PM 48.1167 -77.8500 201° Southwest 430 495 36,000  Level Montreal Center
05:15PM 48.0167 -77.9333 209° Southwest 430 495 36,000  Level Montreal Center
05:16PM 47.8833 -78.0000 199° South 430 495 36,000  Level Montreal Center
05:17PM 47.7667 -78.0667 201° Southwest 430 495 36,000  Level Montreal Center
05:18PM 47.6667 -78.1167 199° South 430 495 36,000  Level Montreal Center
05:19PM 47.5500 -78.1833 201° Southwest 430 495 36,000  Level Montreal Center
05:20PM 47.4500 -78.2500 204° Southwest 420 483 36,000  Level Montreal Center
05:24PM 46.9667 -78.4833 201° Southwest 420 483 36,000  Level Toronto Center
05:25PM 46.8833 -78.5500 209° Southwest 420 483 36,000  Level Montreal Center
05:26PM 46.7833 -78.6167 205° Southwest 420 483 36,000  Level Montreal Center
05:27PM 46.6833 -78.6833 205° Southwest 420 483 36,000  Level Montreal Center
05:28PM 46.7697 -78.6098 201° Southwest  Level FlightAware Approximate
05:28PM 46.5667 -78.7500 201° Southwest 420 483 36,000  Level Montreal Center
05:29PM 46.6850 -78.6561 201° Southwest  Level FlightAware Approximate
05:29PM 46.4667 -78.8000 199° South 420 483 36,000  Level Montreal Center
05:30PM 46.5898 -78.7087 201° Southwest  Level FlightAware Approximate
05:30PM 46.3500 -78.8667 202° Southwest 420 483 36,000  Level Montreal Center
05:31PM 46.2333 -78.9333 202° Southwest 420 483 36,000  Level Montreal Center
05:32PM 46.1167 -78.9833 197° South 410 472 36,000  Level Montreal Center
05:37PM 45.5142 -79.3076 197° South 415 478 36,000  Level FlightAware ADS-B (CYKF)
05:38PM 45.4210 -79.3568 200° South 412 474 36,000  Level FlightAware ADS-B (CYKF)
05:38PM 45.4058 -79.3648 200° South 414 476 36,000  Level FlightAware ADS-B
05:39PM 45.3525 -79.3930 200° South 412 474 36,000  Level FlightAware ADS-B (CYKF)
05:39PM 45.2931 -79.4243 200° South 412 474 36,000  Level FlightAware ADS-B (CYKF)
05:40PM 45.2039 -79.4711 200° South 414 476 36,000  Level FlightAware ADS-B (CYKF)
05:41PM 45.1330 -79.5081 200° South 416 479 36,000  Level FlightAware ADS-B (CYKF)
05:41PM 45.1102 -79.5201 200° South 410 472 36,000  Level FlightAware ADS-B
05:42PM 45.0345 -79.5596 200° South 411 473 36,000  Level FlightAware ADS-B
05:42PM 44.9723 -79.5919 200° South 422 486 36,000  Level FlightAware ADS-B (CYKF)
05:43PM 44.9723 -79.5919 200° South 420 483 36,000  Level FlightAware ADS-B (CYKF)
05:47PM 44.4909 -79.8744 203° Southwest 411 473 36,000  Level FlightAware ADS-B (CYKF)
05:47PM 44.4413 -79.9200 213° Southwest 413 475 36,000  Level FlightAware ADS-B (CYKF)
05:48PM 44.3650 -79.9886 213° Southwest 408 470 36,000  Level FlightAware ADS-B (CYKF)
05:49PM 44.3008 -80.0463 213° Southwest 404 465 36,000  Level FlightAware ADS-B (CYKF)
05:49PM 44.2462 -80.0952 213° Southwest 403 464 36,000  Level FlightAware ADS-B (CYKF)
05:50PM 44.2081 -80.1292 213° Southwest 400 460 36,000  Level FlightAware ADS-B (CYKF)
05:51PM 44.0815 -80.2417 213° Southwest 399 459 36,000  Level FlightAware ADS-B (CYKF)
05:52PM 44.0195 -80.2967 213° Southwest 399 459 36,000  Level FlightAware ADS-B (CYKF)
05:52PM 43.9607 -80.3489 213° Southwest 401 461 36,000  Level FlightAware ADS-B (CYKF)
05:53PM 43.9002 -80.4022 212° Southwest 398 458 36,000  Level FlightAware ADS-B (CYKF)
05:54PM 43.8445 -80.4511 212° Southwest 397 457 36,000  Level FlightAware ADS-B (CYKF)
05:54PM 43.8112 -80.4803 212° Southwest 397 457 36,000  Level FlightAware ADS-B
05:55PM 43.7380 -80.5446 212° Southwest 397 457 36,000  Level FlightAware ADS-B (CYKF)
05:55PM 43.6867 -80.5895 212° Southwest 393 452 36,000  Level FlightAware ADS-B (CYKF)
05:56PM 43.6165 -80.6507 212° Southwest 391 450 36,000  Level FlightAware ADS-B (CYKF)
05:57PM 43.4943 -80.7570 212° Southwest 390 449 36,000  Level FlightAware ADS-B (CYKF)
05:58PM 43.4331 -80.8099 212° Southwest 390 449 36,000  Level FlightAware ADS-B (CYKF)
05:59PM 43.3425 -80.8881 212° Southwest 386 444 36,000  Level FlightAware ADS-B (CYKF)
06:00PM 43.2807 -80.9412 212° Southwest 385 443 36,000  Level FlightAware ADS-B (CYKF)
06:00PM 43.2209 -80.9925 212° Southwest 383 441 36,000  Level FlightAware ADS-B (CYKF)
06:01PM 43.1641 -81.0413 212° Southwest 381 438 36,000  Level FlightAware ADS-B (CYKF)
06:02PM 43.1042 -81.0925 212° Southwest 382 440 36,000  Level FlightAware ADS-B (CYKF)
06:02PM 43.0415 -81.1451 212° Southwest 385 443 36,000  Level FlightAware ADS-B (CYKF)
06:03PM 42.9761 -81.1863 205° Southwest 391 450 36,000  Level FlightAware ADS-B (CYKF)
06:04PM 42.9096 -81.2279 205° Southwest 390 449 36,000  Level FlightAware ADS-B (CYKF)
06:04PM 42.8491 -81.2657 205° Southwest 387 445 36,000  Level FlightAware ADS-B (CYKF)
06:05PM 42.7811 -81.3077 204° Southwest 385 443 36,000  Level FlightAware ADS-B (CYKF)
06:06PM 42.7151 -81.3483 204° Southwest 389 448 36,000  Level FlightAware ADS-B (CYKF)
06:06PM 42.6525 -81.3865 204° Southwest 381 438 36,000  Level FlightAware ADS-B (CYKF)
06:09PM 42.4439 -81.5137 204° Southwest 363 418 36,000  Level FlightAware ADS-B (CYKF)
06:09PM 42.4011 -81.5400 202° Southwest 363 418 36,000  Level Cleveland Center
06:09PM 42.3766 -81.5546 204° Southwest 363 418 36,000  Level FlightAware ADS-B (CYKF)
06:10PM 42.3092 -81.5961 204° Southwest 363 418 36,000  Level Cleveland Center
06:10PM 42.2831 -81.6113 204° Southwest 363 418 36,000  Level FlightAware ADS-B (CYKF)
06:11PM 42.2210 -81.6489 204° Southwest 363 418 36,000  Level FlightAware ADS-B (CYKF)
06:11PM 42.2158 -81.6528 204° Southwest 363 418 36,000  Level Cleveland Center
06:12PM 42.1228 -81.7094 204° Southwest 363 418 36,000  Level Cleveland Center
06:13PM 42.0153 -81.7728 204° Southwest 362 417 36,000  Level Cleveland Center
06:14PM 41.9250 -81.8269 204° Southwest 354 407 36,000  Level Cleveland Center
06:15PM 41.9391 -81.8044 202° Southwest  Level FlightAware Approximate
06:15PM 41.8356 -81.8792 204° Southwest 349 402 36,000  Level Cleveland Center
06:17PM 41.7453 -81.9339 204° Southwest 351 404 36,000  Level Cleveland Center
06:18PM 41.6494 -81.9903 204° Southwest 372 428 36,000  Level Cleveland Center
06:19PM 41.5542 -82.0461 204° Southwest 373 429 36,000  Level Cleveland Center
06:20PM 41.4439 -82.1114 204° Southwest 373 429 36,000  Level Cleveland Center
06:21PM 41.3464 -82.1658 203° Southwest 373 429 36,000  Level Cleveland Center
06:22PM 41.2403 -82.2028 195° South 389 448 36,000  Level Cleveland Center
06:23PM 41.1356 -82.2414 196° South 391 450 36,000  Level Cleveland Center
06:24PM 41.0281 -82.2797 195° South 392 451 36,000  Level Cleveland Center
06:25PM 40.9025 -82.3242 195° South 395 455 36,000  Level Cleveland Center
06:26PM 40.7944 -82.3622 195° South 395 455 36,000  Level Cleveland Center
06:27PM 40.6858 -82.4006 195° South 398 458 36,000  Level Cleveland Center
06:28PM 40.5789 -82.4383 195° South 398 458 36,000  Level Cleveland Center
06:33PM 40.0361 -82.5956 195° South 419 482 36,000  Level FlightAware ADS-B (KPMH)
06:34PM 39.8892 -82.6062 183° South 421 484 36,000  Level FlightAware ADS-B (KPMH)
06:35PM 39.7724 -82.6141 183° South 419 482 36,000  Level FlightAware ADS-B (KPMH)
06:36PM 39.6876 -82.6199 183° South 418 481 36,000  Level FlightAware ADS-B (KPMH)
06:37PM 39.5972 -82.6260 183° South 416 479 36,000  Level FlightAware ADS-B (KPMH)
06:37PM 39.5355 -82.6302 183° South 415 478 36,000  Level FlightAware ADS-B (KPMH)
06:38PM 39.4760 -82.6342 183° South 414 476 36,000  Level FlightAware ADS-B (KPMH)
06:38PM 39.3934 -82.6396 183° South 416 479 36,000  Level FlightAware ADS-B (KPMH)
06:39PM 39.3083 -82.6452 183° South 418 481 36,000  Level FlightAware ADS-B (KPMH)
06:40PM 39.2471 -82.6493 183° South 418 481 36,000  Level FlightAware ADS-B (KPMH)
06:40PM 39.1781 -82.6539 183° South 422 486 36,000  Level FlightAware ADS-B (KPMH)
06:41PM 39.0942 -82.6596 183° South 423 487 36,000  Level FlightAware ADS-B (KPMH)
06:41PM 39.0356 -82.6635 183° South 426 490 36,000  Level FlightAware ADS-B (KPMH)
06:42PM 38.9522 -82.6689 183° South 426 490 36,000  Level FlightAware ADS-B (KPMH)
06:43PM 38.8915 -82.6728 183° South 423 487 36,000  Level FlightAware ADS-B (KPMH)
06:43PM 38.8000 -82.6789 183° South 422 486 36,000  Level FlightAware ADS-B (KPMH)
06:44PM 38.7418 -82.6827 183° South 423 487 36,000  Level FlightAware ADS-B (KPMH)
06:45PM 38.6587 -82.6882 183° South 425 489 36,000  Level FlightAware ADS-B (KPMH)
06:46PM 38.5389 -82.6953 183° South 423 487 36,000  Level Indianapolis Center
06:47PM 38.4194 -82.7033 183° South 428 493 36,000  Level Indianapolis Center
06:48PM 38.3017 -82.7114 183° South 424 488 36,000  Level Indianapolis Center
06:49PM 38.1836 -82.7192 183° South 426 490 36,000  Level Indianapolis Center
06:50PM 38.0817 -82.7739 203° Southwest 402 463 36,000  Level Indianapolis Center
07:00PM 37.0094 -83.3358 202° Southwest 402 463 36,000  Level Indianapolis Center
07:01PM 37.1969 -83.2614 202° Southwest  Level FlightAware Approximate
07:01PM 36.9056 -83.3881 202° Southwest 403 464 36,000  Level Indianapolis Center
07:02PM 37.1134 -83.3032 202° Southwest  Level FlightAware Approximate
07:02PM 36.8028 -83.4408 202° Southwest 401 461 36,000  Level Indianapolis Center
07:03PM 37.0299 -83.3449 202° Southwest  Level FlightAware Approximate
07:03PM 36.6986 -83.4931 202° Southwest 404 465 36,000  Level Indianapolis Center
07:04PM 36.9464 -83.3865 202° Southwest  Level FlightAware Approximate
07:04PM 36.5944 -83.5464 202° Southwest 404 465 36,000  Level Indianapolis Center
07:05PM 36.8524 -83.4332 202° Southwest  Level FlightAware Approximate
07:05PM 36.4928 -83.5983 202° Southwest 400 460 36,000  Level Indianapolis Center
07:06PM 36.3672 -83.6619 202° Southwest 403 464 36,000  Level Indianapolis Center
07:07PM 36.2622 -83.7144 202° Southwest 405 466 36,000  Level Indianapolis Center
07:08PM 36.1572 -83.7667 202° Southwest 405 466 36,000  Level Indianapolis Center
07:09PM 36.0561 -83.8203 203° Southwest 408 470 36,000  Level Atlanta Center
07:10PM 35.9517 -83.8719 202° Southwest 408 470 36,000  Level Atlanta Center
07:11PM 35.8392 -83.9106 196° South 413 475 36,000  Level Atlanta Center
07:16PM 35.2216 -84.0601 196° South 425 489 36,000  Level FlightAware ADS-B (KDZJ)
07:16PM 35.1477 -84.0778 191° South 426 490 36,000  Level FlightAware ADS-B (KDZJ)
07:17PM 35.0536 -84.1004 191° South 426 490 36,000  Level FlightAware ADS-B (KDZJ)
07:18PM 34.9754 -84.1190 191° South 427 491 36,000  Level FlightAware ADS-B (KDZJ)
07:19PM 34.8970 -84.1378 191° South 425 489 36,000  Level FlightAware ADS-B (KDZJ)
07:19PM 34.8209 -84.1559 191° South 425 489 36,000  Level FlightAware ADS-B (KDZJ)
07:20PM 34.7608 -84.1702 191° South 424 488 36,000  Level FlightAware ADS-B (KDZJ)
07:20PM 34.7001 -84.1846 191° South 414 476 36,000 60 Level FlightAware ADS-B (KDZJ)
07:21PM 34.6354 -84.1999 191° South 414 476 36,100 420 Climbing FlightAware ADS-B (KDZJ)
07:21PM 34.5691 -84.2155 191° South 427 491 36,500 600 Climbing FlightAware ADS-B (KDZJ)
07:22PM 34.4711 -84.2387 191° South 429 494 37,000 300 Climbing FlightAware ADS-B (KDZJ)
07:23PM 34.3927 -84.2570 191° South 427 491 37,000  Level FlightAware ADS-B (KDZJ)
07:24PM 34.3128 -84.2758 191° South 426 490 37,000  Level FlightAware ADS-B (KDZJ)
07:24PM 34.2345 -84.2943 191° South 426 490 37,000  Level FlightAware ADS-B (KDZJ)
07:25PM 34.1568 -84.3124 191° South 426 490 37,000  Level FlightAware ADS-B (KDZJ)
07:26PM 34.0764 -84.3313 191° South 426 490 37,000  Level FlightAware ADS-B (KDZJ)
07:26PM 33.9994 -84.3492 191° South 427 491 37,000  Level FlightAware ADS-B (KDZJ)
07:29PM 33.7519 -84.4111 179° South 430 495 37,000  Level Atlanta Center
07:30PM 33.6328 -84.4331 189° South 435 501 37,000  Level Atlanta Center
07:31PM 33.5078 -84.4350 181° South 446 513 37,000  Level Atlanta Center
07:32PM 33.3825 -84.4319 179° South 451 519 37,000  Level Atlanta Center
07:33PM 33.4369 -84.4282 179° South  Level FlightAware Approximate
07:33PM 33.2572 -84.4289 179° South 445 512 37,000  Level Atlanta Center
07:34PM 33.3471 -84.4256 179° South  Level FlightAware Approximate
07:34PM 33.1319 -84.4283 180° South 445 512 37,000  Level Atlanta Center
07:35PM 33.2312 -84.4223 179° South  Level FlightAware Approximate
07:35PM 32.9983 -84.4253 179° South 450 518 37,000  Level Atlanta Center
07:36PM 32.8689 -84.4247 180° South 455 524 37,000  Level Atlanta Center
07:37PM 32.7583 -84.4192 178° South 455 524 37,000  Level Atlanta Center
07:38PM 32.6353 -84.4161 179° South 450 518 37,000  Level Atlanta Center
07:39PM 32.5078 -84.4133 179° South 450 518 37,000  Level Atlanta Center
07:40PM 32.3828 -84.4128 180° South 456 525 37,000  Level Atlanta Center
07:41PM 32.2594 -84.4097 179° South 456 525 37,000  Level Atlanta Center
07:43PM 32.0092 -84.4042 179° South 455 524 37,000  Level Jacksonville Center
07:44PM 31.8800 -84.4022 179° South 460 529 37,000  Level Jacksonville Center
07:45PM 31.7525 -84.3975 178° South 460 529 37,000  Level Jacksonville Center
07:46PM 31.6272 -84.3956 179° South 460 529 37,000  Level Jacksonville Center
07:51PM 30.9538 -84.3817 179° South 455 524 37,000  Level FlightAware ADS-B (KTLH)
07:52PM 30.8802 -84.3803 179° South 456 525 37,000  Level FlightAware ADS-B (KTLH)
07:53PM 30.7846 -84.3785 179° South 456 525 37,000  Level FlightAware ADS-B (KTLH)
07:53PM 30.6982 -84.3761 179° South 458 527 37,000  Level FlightAware ADS-B (KTLH)
07:54PM 30.6158 -84.3641 173° South 469 540 37,000  Level FlightAware ADS-B (KTLH)
07:55PM 30.5328 -84.3397 166° South 481 554 37,000  Level FlightAware ADS-B (KTLH)
07:55PM 30.4462 -84.2995 158° South 493 567 37,000  Level FlightAware ADS-B (KTLH)
07:56PM 30.3645 -84.2477 151° Southeast 499 574 37,000  Level FlightAware ADS-B (KTLH)
07:57PM 30.2817 -84.1938 151° Southeast 498 573 37,000  Level FlightAware ADS-B (KTLH)
07:57PM 30.2045 -84.1436 151° Southeast 499 574 37,000  Level FlightAware ADS-B (KTLH)
07:58PM 30.0821 -84.0640 151° Southeast 500 575 37,000  Level FlightAware ADS-B (KTLH)
07:59PM 30.0001 -84.0107 151° Southeast 498 573 37,000  Level FlightAware ADS-B (KTLH)
08:00PM 29.9266 -83.9631 151° Southeast 497 572 37,000  Level FlightAware ADS-B (KTLH)
08:00PM 29.9026 -83.9475 151° Southeast 498 573 37,000  Level FlightAware ADS-B (KTLH)
08:01PM 29.7514 -83.8494 151° Southeast 497 572 37,000  Level Jacksonville Center
08:02PM 29.6289 -83.7742 152° Southeast 497 572 37,000  Level Jacksonville Center
08:03PM 29.5186 -83.7039 151° Southeast 497 572 37,000  Level Jacksonville Center
08:04PM 29.3958 -83.6267 151° Southeast 497 572 37,000  Level Jacksonville Center
08:10PM 28.6302 -83.1352 151° Southeast 501 577 37,000  Level FlightAware ADS-B (KMCO)
08:11PM 28.5344 -83.0750 151° Southeast 502 578 37,000  Level FlightAware ADS-B (KMCO)
08:12PM 28.4620 -83.0295 151° Southeast 502 578 37,000  Level FlightAware ADS-B (KMCO)
08:12PM 28.3910 -82.9851 151° Southeast 500 575 37,000  Level FlightAware ADS-B (KMCO)
08:13PM 28.2602 -82.9034 151° Southeast 502 578 37,000  Level FlightAware ADS-B (KMCO)
08:14PM 28.2019 -82.8670 151° Southeast 503 579 37,000  Level FlightAware ADS-B (KMCO)
08:15PM 28.0856 -82.7946 151° Southeast 504 580 37,000  Level FlightAware ADS-B (KMCO)
08:16PM 27.9866 -82.7331 151° Southeast 504 580 37,000  Level FlightAware ADS-B (KMCO)
08:16PM 27.8911 -82.6739 151° Southeast 504 580 37,000  Level FlightAware ADS-B (KMCO)
08:17PM 27.7800 -82.5993 149° Southeast 506 582 37,000  Level FlightAware ADS-B (KMCO)
08:18PM 27.6990 -82.5448 149° Southeast 506 582 37,000  Level FlightAware ADS-B (KMCO)
08:19PM 27.6276 -82.4973 149° Southeast 506 582 37,000  Level FlightAware ADS-B (KMCO)
08:20PM 27.5092 -82.4186 149° Southeast 504 580 37,000  Level FlightAware ADS-B (KMCO)
08:20PM 27.4195 -82.3592 150° Southeast 504 580 37,000  Level FlightAware ADS-B (KMCO)
08:21PM 27.3371 -82.3047 150° Southeast 505 581 37,000  Level FlightAware ADS-B (KMCO)
08:22PM 27.2523 -82.2487 150° Southeast 506 582 37,000  Level FlightAware ADS-B (KMCO)
08:22PM 27.1868 -82.2055 150° Southeast 507 583 37,000  Level FlightAware ADS-B (KMCO)
08:23PM 27.0927 -82.1436 150° Southeast 506 582 37,000  Level FlightAware ADS-B (KMCO)
08:24PM 26.9334 -82.0389 150° Southeast 503 579 37,000  Level FlightAware ADS-B (KMCO)
08:25PM 26.8530 -81.9863 150° Southeast 503 579 37,000  Level FlightAware ADS-B (KMCO)
08:26PM 26.7753 -81.9355 150° Southeast 504 580 37,000  Level FlightAware ADS-B (KMCO)
08:26PM 26.6868 -81.8778 150° Southeast 504 580 37,000  Level FlightAware ADS-B (KMCO)
08:27PM 26.6040 -81.8238 150° Southeast 506 582 37,000  Level FlightAware ADS-B (KMCO)
08:28PM 26.5210 -81.7765 153° Southeast 498 573 37,000  Level FlightAware ADS-B (KMCO)
08:28PM 26.4462 -81.7458 160° South 493 567 37,000  Level FlightAware ADS-B (KMCO)
08:29PM 26.3493 -81.7077 161° South 497 572 37,000  Level FlightAware ADS-B (KMCO)
08:30PM 26.2993 -81.6942 166° South 463 533 37,000  Level FlightAware ADS-B (KMCO)
08:30PM 26.2186 -81.7029 186° South 447 514 37,000  Level FlightAware ADS-B (KMCO)
08:31PM 26.1419 -81.7319 199° South 448 516 37,000  Level FlightAware ADS-B (KMCO)
08:31PM 26.0636 -81.7609 198° South 450 518 37,000  Level FlightAware ADS-B (KMCO)
08:32PM 25.9877 -81.7891 199° South 449 517 37,000  Level FlightAware ADS-B (KMCO)
08:32PM 25.9614 -81.8014 208° Southwest 452 520 37,000  Level Miami Center
08:33PM 25.9129 -81.8170 199° South 448 516 37,000  Level FlightAware ADS-B (KMCO)
08:33PM 25.8472 -81.8428 198° South 452 520 37,000  Level Miami Center
08:34PM 25.7891 -81.8632 199° South 447 514 37,000  Level FlightAware ADS-B (KMCO)
08:34PM 25.7125 -81.8916 199° South 447 514 37,000  Level FlightAware ADS-B (KMCO)
08:34PM 25.7267 -81.8886 199° South 452 520 37,000  Level Miami Center
08:35PM 25.6103 -81.9322 199° South 452 520 37,000  Level Miami Center
08:36PM 25.4939 -81.9756 199° South 447 514 37,000  Level Miami Center
08:37PM 25.3733 -82.0186 198° South 452 520 37,000  Level Miami Center
08:38PM 25.4327 -82.0579 208° Southwest  Level FlightAware Approximate
08:38PM 25.2569 -82.0619 199° South 447 514 37,000  Level Miami Center
08:39PM 25.1408 -82.1053 199° South 447 514 37,000  Level Miami Center
08:40PM 25.0244 -82.1483 199° South 447 514 37,000 -240 Level Miami Center
08:41PM 24.9058 -82.1914 198° South 447 514 36,600 -900 Descending Miami Center
08:42PM 24.7894 -82.2342 198° South 447 514 35,200 -1,440 Descending Miami Center
08:44PM 24.6912 -82.2136 169° South  Level FlightAware Approximate
08:51PM 24.0676 -82.2858 193° South  Level Estimated
08:52PM 23.9785 -82.2961 197° South  Level Estimated
08:53PM 23.8894 -82.3063 193° South  Level Estimated
08:54PM 23.8028 -82.3315 195° South  Level FlightAware Approximate
08:55PM 23.7162 -82.3567 195° South  Level FlightAware Approximate
08:56PM 23.6296 -82.3818 195° South  Level FlightAware Approximate
08:57PM 23.5401 -82.3856 189° South  Level Estimated
08:58PM 23.4431 -82.4151 196° South  Level FlightAware Approximate
08:59PM 23.3424 -82.4138 175° South  Level Estimated
09:00PM 23.2417 -82.4161 181° South  Level FlightAware Approximate
09:01PM 23.1410 -82.4133 170° South  Level Estimated
09:02PM 23.0403 -82.4105 180° South  Level Estimated
09:03PM 22.9891 -82.4091 180° South  Level Estimated
09:04PM 22.9891 -82.4091 180° South  Level Estimated
09:05PM 22.9891 -82.4091 180° South  Level Estimated
09:06PM 22.9891 -82.4091 180° South  Level Estimated
09:07PM 22.9891 -82.4091 180° South  Level Estimated
09:08PM 22.9891 -82.4091 180° South  Level Estimated
09:09PM 22.9891 -82.4091 180° South  Level Estimated
09:10PM 22.9891 -82.4091 180° South  Level Estimated
09:11PM 22.9891 -82.4091 180° South  Level Estimated
09:12PM 22.9891 -82.4091 180° South  Level Estimated
09:13PM 22.9891 -82.4091 180° South  Level Estimated
09:14PM 22.9891 -82.4091 180° South  Level Estimated
09:15PM 22.9891 -82.4091 180° South  Level Estimated
09:16PM 22.9891 -82.4091 180° South  Level Estimated
09:17PM 22.9891 -82.4091 180° South  Level Estimated
09:18PM 22.9891 -82.4091 180° South  Level Estimated
09:19PM 22.9891 -82.4091 180° South  Level Estimated
09:20PM 22.9891 -82.4091 180° South  Level Estimated
09:21PM 22.9891 -82.4091 180° South  Level Estimated